createdAt,value
2023-04-02T00:00:20.402Z,1.47
2023-04-02T00:03:22.320Z,1.30
2023-04-02T00:06:33.172Z,1.63
2023-04-02T00:09:37.781Z,1.63
2023-04-02T00:12:39.594Z,1.27
2023-04-02T00:15:44.408Z,2.90
2023-04-02T00:18:50.352Z,1.63
2023-04-02T00:21:53.177Z,1.37
2023-04-02T00:24:56.492Z,1.80
2023-04-02T00:27:58.514Z,1.70
2023-04-02T00:31:00.600Z,2.93
2023-04-02T00:34:07.229Z,3.63
2023-04-02T00:37:18.474Z,3.27
2023-04-02T00:40:27.962Z,2.17
2023-04-02T00:43:33.243Z,2.43
2023-04-02T00:46:48.896Z,2.50
2023-04-02T00:49:58.734Z,4.30
2023-04-02T00:53:08.867Z,2.37
2023-04-02T00:56:23.021Z,3.13
2023-04-02T00:59:32.021Z,2.57
2023-04-02T01:02:38.385Z,3.50
2023-04-02T01:05:42.614Z,2.47
2023-04-02T01:08:44.775Z,2.00
2023-04-02T01:12:11.716Z,2.20
2023-04-02T01:15:16.504Z,4.13
2023-04-02T01:18:46.487Z,2.03
2023-04-02T01:22:08.045Z,1.57
2023-04-02T01:25:17.821Z,1.80
2023-04-02T01:28:29.490Z,1.97
2023-04-02T01:31:33.515Z,2.30
2023-04-02T01:34:36.376Z,4.30
2023-04-02T01:37:45.002Z,2.67
2023-04-02T01:41:00.671Z,3.97
2023-04-02T01:44:09.602Z,3.83
2023-04-02T01:47:14.209Z,4.27
2023-04-02T01:50:32.063Z,3.43
2023-04-02T01:53:33.913Z,4.07
2023-04-02T01:56:36.096Z,4.80
2023-04-02T01:59:38.028Z,5.60
2023-04-02T02:02:41.234Z,4.47
2023-04-02T02:05:43.552Z,5.13
2023-04-02T02:08:56.541Z,5.40
2023-04-02T02:11:59.119Z,4.53
2023-04-02T02:15:00.843Z,7.83
2023-04-02T02:18:06.757Z,4.77
2023-04-02T02:21:10.774Z,4.83
2023-04-02T02:24:28.895Z,6.40
2023-04-02T02:27:49.124Z,4.60
2023-04-02T02:30:56.447Z,5.03
2023-04-02T02:34:06.337Z,6.17
2023-04-02T02:37:16.508Z,6.37
2023-04-02T02:40:27.916Z,6.40
2023-04-02T02:43:30.312Z,8.07
2023-04-02T02:46:34.056Z,7.30
2023-04-02T02:49:41.065Z,8.00
2023-04-02T02:52:50.441Z,6.93
2023-04-02T02:55:57.956Z,8.90
2023-04-02T02:59:00.445Z,6.87
2023-04-02T03:02:03.822Z,7.27
2023-04-02T03:05:07.643Z,6.10
2023-04-02T03:08:19.011Z,7.17
2023-04-02T03:11:30.622Z,7.50
2023-04-02T03:14:48.633Z,2.80
2023-04-02T03:18:08.704Z,0.50
2023-04-02T03:21:30.911Z,0.60
2023-04-02T03:24:44.158Z,0.40
2023-04-02T03:27:48.905Z,1.33
2023-04-02T03:31:03.491Z,0.33
2023-04-02T03:34:14.229Z,0.80
2023-04-02T03:37:18.917Z,0.50
2023-04-02T03:40:31.116Z,0.40
2023-04-02T03:43:40.715Z,1.00
2023-04-02T03:46:48.650Z,0.43
2023-04-02T03:49:59.796Z,0.33
2023-04-02T03:53:03.344Z,0.37
2023-04-02T03:56:06.735Z,0.50
2023-04-02T03:59:21.611Z,0.20
2023-04-02T04:02:43.902Z,1.17
2023-04-02T04:06:14.279Z,0.40
2023-04-02T04:09:34.641Z,0.27
2023-04-02T04:12:41.126Z,0.67
2023-04-02T04:15:51.732Z,0.10
2023-04-02T04:19:10.844Z,0.20
2023-04-02T04:22:19.178Z,1.17
2023-04-02T04:25:29.812Z,0.30
2023-04-02T04:29:12.492Z,2.67
2023-04-02T04:32:39.173Z,0.20
2023-04-02T04:35:48.799Z,0.10
2023-04-02T04:38:55.923Z,1.07
2023-04-02T04:42:01.297Z,0.67
2023-04-02T04:45:28.215Z,0.10
2023-04-02T04:48:50.280Z,0.27
2023-04-02T04:51:56.590Z,0.10
2023-04-02T04:54:58.548Z,0.73
2023-04-02T04:58:08.928Z,1.80
2023-04-02T05:01:19.197Z,0.20
2023-04-02T05:04:51.989Z,0.13
2023-04-02T05:08:00.613Z,0.57
2023-04-02T05:11:08.809Z,0.20
2023-04-02T05:14:25.999Z,1.50
2023-04-02T05:17:42.547Z,0.17
2023-04-02T05:20:50.623Z,0.10
2023-04-02T05:24:04.393Z,0.20
2023-04-02T05:27:15.648Z,1.20
2023-04-02T05:30:23.823Z,0.23
2023-04-02T05:33:30.904Z,2.73
2023-04-02T05:36:33.315Z,0.23
2023-04-02T05:39:35.261Z,0.40
2023-04-02T05:42:38.182Z,0.40
2023-04-02T05:45:43.604Z,0.20
2023-04-02T05:48:51.811Z,0.20
2023-04-02T05:51:57.725Z,2.00
2023-04-02T05:55:19.840Z,0.70
2023-04-02T05:58:47.160Z,0.27
2023-04-02T06:02:19.328Z,0.40
2023-04-02T06:05:29.005Z,0.30
2023-04-02T06:08:38.493Z,0.50
2023-04-02T06:11:45.480Z,0.30
2023-04-02T06:14:47.304Z,0.60
2023-04-02T06:18:17.010Z,0.40
2023-04-02T06:21:21.230Z,0.57
2023-04-02T06:24:25.748Z,0.60
2023-04-02T06:27:28.099Z,1.00
2023-04-02T06:30:36.933Z,0.50
2023-04-02T06:33:38.743Z,1.13
2023-04-02T06:36:41.224Z,0.63
2023-04-02T06:39:43.076Z,0.40
2023-04-02T06:42:46.737Z,0.50
2023-04-02T06:45:51.997Z,1.00
2023-04-02T06:49:01.243Z,0.50
2023-04-02T06:52:08.626Z,0.40
2023-04-02T06:55:45.012Z,0.40
2023-04-02T06:58:46.914Z,1.43
2023-04-02T07:02:22.739Z,0.83
2023-04-02T07:05:24.581Z,0.50
2023-04-02T07:08:26.490Z,0.50
2023-04-02T07:11:28.361Z,0.60
2023-04-02T07:14:30.354Z,0.80
2023-04-02T07:17:32.205Z,1.63
2023-04-02T07:20:38.854Z,1.97
2023-04-02T07:23:41.919Z,0.70
2023-04-02T07:26:43.915Z,2.40
2023-04-02T07:29:45.828Z,2.07
2023-04-02T07:32:48.894Z,2.40
2023-04-02T07:35:52.011Z,4.17
2023-04-02T07:38:54.070Z,1.33
2023-04-02T07:42:01.146Z,1.23
2023-04-02T07:45:05.789Z,2.60
2023-04-02T07:48:13.143Z,1.30
2023-04-02T07:51:26.146Z,1.30
2023-04-02T07:54:28.379Z,0.90
2023-04-02T07:57:30.276Z,1.53
2023-04-02T08:00:32.366Z,0.50
2023-04-02T08:03:34.606Z,0.50
2023-04-02T08:06:36.887Z,0.60
2023-04-02T08:09:38.666Z,1.03
2023-04-02T08:12:40.577Z,0.60
2023-04-02T08:15:43.571Z,1.83
2023-04-02T08:18:47.519Z,0.50
2023-04-02T08:21:51.534Z,2.20
2023-04-02T08:24:53.511Z,0.97
2023-04-02T08:27:55.230Z,0.40
2023-04-02T08:30:58.378Z,0.50
2023-04-02T08:34:01.732Z,0.50
2023-04-02T08:37:03.524Z,0.70
2023-04-02T08:40:07.466Z,0.50
2023-04-02T08:43:28.752Z,0.90
2023-04-02T08:46:46.348Z,0.60
2023-04-02T08:49:58.909Z,0.97
2023-04-02T08:53:23.191Z,0.50
2023-04-02T08:56:37.023Z,0.60
2023-04-02T08:59:41.834Z,1.10
2023-04-02T09:02:50.721Z,0.83
2023-04-02T09:05:53.485Z,0.70
2023-04-02T09:08:56.983Z,0.80
2023-04-02T09:12:04.030Z,0.70
2023-04-02T09:15:08.762Z,0.70
2023-04-02T09:18:14.886Z,1.00
2023-04-02T09:21:23.433Z,0.90
2023-04-02T09:24:25.347Z,2.30
2023-04-02T09:27:32.901Z,1.10
2023-04-02T09:31:01.392Z,0.83
2023-04-02T09:34:36.099Z,1.63
2023-04-02T09:37:38.579Z,1.10
2023-04-02T09:40:55.329Z,1.23
2023-04-02T09:44:21.605Z,0.70
2023-04-02T09:47:26.335Z,0.83
2023-04-02T09:50:32.000Z,1.53
2023-04-02T09:53:37.086Z,1.20
2023-04-02T09:56:40.462Z,4.10
2023-04-02T09:59:42.410Z,1.83
2023-04-02T10:02:46.623Z,1.50
2023-04-02T10:05:48.847Z,1.70
2023-04-02T10:08:50.788Z,2.33
2023-04-02T10:11:54.784Z,2.33
2023-04-02T10:14:59.122Z,1.97
2023-04-02T10:18:11.828Z,1.50
2023-04-02T10:21:23.426Z,2.17
2023-04-02T10:24:28.011Z,1.60
2023-04-02T10:27:42.495Z,2.10
2023-04-02T10:31:03.050Z,1.60
2023-04-02T10:34:16.484Z,1.50
2023-04-02T10:37:27.608Z,1.40
2023-04-02T10:40:52.291Z,1.67
2023-04-02T10:44:09.446Z,1.23
2023-04-02T10:47:27.387Z,3.17
2023-04-02T10:50:50.951Z,1.30
2023-04-02T10:53:58.062Z,1.17
2023-04-02T10:57:37.495Z,1.70
2023-04-02T11:00:42.095Z,1.70
2023-04-02T11:03:50.099Z,2.27
2023-04-02T11:07:21.181Z,1.67
2023-04-02T11:10:23.800Z,2.47
2023-04-02T11:13:33.426Z,2.97
2023-04-02T11:16:37.636Z,2.70
2023-04-02T11:19:41.914Z,3.10
2023-04-02T11:22:43.984Z,3.50
2023-04-02T11:25:46.662Z,2.93
2023-04-02T11:28:48.596Z,4.70
2023-04-02T11:32:11.070Z,3.73
2023-04-02T11:35:31.280Z,4.40
2023-04-02T11:38:51.803Z,3.47
2023-04-02T11:42:06.275Z,4.80
2023-04-02T11:45:52.912Z,5.00
2023-04-02T11:49:15.590Z,3.73
2023-04-02T11:52:37.876Z,4.13
2023-04-02T11:55:44.643Z,3.67
2023-04-02T11:59:16.486Z,5.40
2023-04-02T12:02:36.404Z,5.23
2023-04-02T12:05:47.458Z,4.17
2023-04-02T12:08:57.935Z,4.10
2023-04-02T12:12:15.008Z,5.93
2023-04-02T12:15:37.940Z,4.27
2023-04-02T12:18:51.152Z,3.47
2023-04-02T12:21:53.636Z,4.00
2023-04-02T12:25:02.481Z,4.50
2023-04-02T12:28:14.555Z,3.13
2023-04-02T12:31:19.661Z,4.27
2023-04-02T12:34:24.256Z,3.13
2023-04-02T12:37:28.417Z,3.17
2023-04-02T12:40:30.647Z,3.03
2023-04-02T12:43:34.814Z,3.97
2023-04-02T12:46:36.652Z,3.57
2023-04-02T12:49:41.566Z,4.83
2023-04-02T12:52:50.105Z,4.13
2023-04-02T12:55:53.324Z,3.33
2023-04-02T12:59:01.346Z,3.63
2023-04-02T13:02:16.934Z,5.10
2023-04-02T13:05:44.158Z,3.60
2023-04-02T13:08:45.916Z,3.97
2023-04-02T13:11:47.772Z,3.87
2023-04-02T13:14:56.374Z,4.33
2023-04-02T13:18:13.129Z,4.30
2023-04-02T13:21:14.995Z,7.17
2023-04-02T13:24:22.278Z,6.87
2023-04-02T13:27:24.124Z,6.07
2023-04-02T13:30:28.590Z,6.37
2023-04-02T13:33:30.467Z,3.97
2023-04-02T13:36:32.431Z,4.37
2023-04-02T13:39:34.346Z,5.53
2023-04-02T13:42:36.736Z,5.77
2023-04-02T13:45:40.571Z,4.83
2023-04-02T13:48:42.402Z,4.27
2023-04-02T13:51:47.208Z,8.47
2023-04-02T13:54:54.687Z,4.47
2023-04-02T13:57:57.202Z,5.90
2023-04-02T14:00:59.218Z,4.80
2023-04-02T14:04:02.601Z,5.93
2023-04-02T14:07:32.030Z,7.83
2023-04-02T14:10:49.234Z,5.80
2023-04-02T14:14:03.058Z,7.10
2023-04-02T14:17:29.368Z,4.67
2023-04-02T14:20:58.615Z,5.77
2023-04-02T14:24:28.380Z,4.57
2023-04-02T14:27:43.908Z,5.67
2023-04-02T14:30:56.462Z,5.67
2023-04-02T14:34:23.773Z,5.07
2023-04-02T14:37:56.662Z,4.30
2023-04-02T14:41:04.730Z,6.83
2023-04-02T14:44:08.529Z,5.30
2023-04-02T14:47:29.322Z,4.23
2023-04-02T14:50:40.078Z,5.43
2023-04-02T14:53:49.847Z,5.63
2023-04-02T14:57:05.054Z,6.33
2023-04-02T15:00:08.362Z,6.00
2023-04-02T15:03:25.929Z,6.97
2023-04-02T15:06:34.484Z,7.10
2023-04-02T15:09:42.460Z,7.80
2023-04-02T15:12:46.536Z,6.67
2023-04-02T15:15:58.677Z,7.13
2023-04-02T15:19:01.366Z,8.53
2023-04-02T15:22:09.819Z,6.87
2023-04-02T15:25:26.250Z,7.27
2023-04-02T15:28:57.369Z,7.80
2023-04-02T15:32:16.297Z,7.13
2023-04-02T15:35:40.522Z,6.00
2023-04-02T15:38:51.068Z,5.37
2023-04-02T15:42:14.722Z,7.20
2023-04-02T15:45:29.394Z,5.67
2023-04-02T15:48:43.159Z,6.70
2023-04-02T15:51:50.978Z,6.50
2023-04-02T15:55:02.025Z,6.30
2023-04-02T15:58:06.832Z,7.07
2023-04-02T16:01:25.825Z,9.50
2023-04-02T16:04:57.110Z,6.70
2023-04-02T16:08:28.635Z,8.93
2023-04-02T16:11:31.120Z,8.20
2023-04-02T16:14:33.941Z,5.03
2023-04-02T16:17:43.743Z,7.90
2023-04-02T16:20:51.106Z,6.97
2023-04-02T16:23:53.350Z,6.50
2023-04-02T16:27:05.729Z,6.07
2023-04-02T16:30:26.172Z,5.63
2023-04-02T16:33:33.112Z,6.90
2023-04-02T16:36:56.546Z,7.43
2023-04-02T16:40:11.899Z,7.27
2023-04-02T16:43:30.685Z,7.03
2023-04-02T16:46:46.215Z,5.30
2023-04-02T16:50:05.705Z,8.43
2023-04-02T16:53:14.789Z,7.23
2023-04-02T16:56:29.218Z,5.23
2023-04-02T16:59:35.772Z,5.77
2023-04-02T17:02:52.400Z,6.40
2023-04-02T17:06:08.440Z,6.27
2023-04-02T17:09:37.413Z,7.30
2023-04-02T17:12:47.866Z,6.13
2023-04-02T17:16:12.024Z,4.23
2023-04-02T17:19:16.724Z,6.63
2023-04-02T17:22:21.349Z,6.63
2023-04-02T17:25:31.241Z,5.53
2023-04-02T17:28:38.191Z,6.67
2023-04-02T17:31:42.354Z,7.47
2023-04-02T17:34:44.348Z,5.77
2023-04-02T17:38:01.039Z,8.20
2023-04-02T17:41:19.255Z,7.03
2023-04-02T17:44:38.532Z,3.97
2023-04-02T17:47:45.034Z,6.20
2023-04-02T17:51:01.846Z,6.77
2023-04-02T17:54:32.013Z,5.53
2023-04-02T17:58:01.548Z,6.13
2023-04-02T18:01:10.904Z,6.90
2023-04-02T18:04:31.262Z,5.83
2023-04-02T18:07:42.247Z,6.97
2023-04-02T18:11:09.090Z,7.10
2023-04-02T18:14:19.796Z,6.60
2023-04-02T18:17:42.383Z,3.63
2023-04-02T18:21:11.586Z,7.43
2023-04-02T18:24:33.567Z,5.43
2023-04-02T18:27:47.242Z,9.43
2023-04-02T18:31:21.780Z,6.30
2023-04-02T18:34:23.580Z,6.33
2023-04-02T18:37:44.391Z,7.37
2023-04-02T18:41:01.558Z,9.23
2023-04-02T18:44:06.084Z,10.20
2023-04-02T18:47:19.333Z,6.50
2023-04-02T18:50:34.441Z,6.73
2023-04-02T18:53:36.795Z,7.67
2023-04-02T18:56:39.450Z,6.83
2023-04-02T19:00:02.290Z,7.30
2023-04-02T19:03:21.437Z,6.87
2023-04-02T19:06:34.869Z,7.37
2023-04-02T19:09:42.638Z,7.93
2023-04-02T19:12:44.431Z,8.13
2023-04-02T19:16:11.251Z,7.57
2023-04-02T19:19:31.084Z,10.97
2023-04-02T19:22:38.948Z,6.40
2023-04-02T19:26:08.620Z,7.73
2023-04-02T19:29:22.460Z,8.83
2023-04-02T19:32:49.491Z,7.27
2023-04-02T19:36:00.463Z,9.47
2023-04-02T19:39:36.298Z,9.80
2023-04-02T19:42:45.601Z,7.30
2023-04-02T19:45:49.351Z,8.03
2023-04-02T19:49:23.224Z,6.93
2023-04-02T19:52:25.103Z,7.17
2023-04-02T19:55:27.411Z,6.80
2023-04-02T19:58:34.080Z,7.13
2023-04-02T20:01:36.130Z,8.50
2023-04-02T20:04:38.603Z,8.13
2023-04-02T20:07:40.424Z,8.73
2023-04-02T20:10:42.900Z,8.57
2023-04-02T20:13:44.717Z,10.17
2023-04-02T20:16:46.713Z,9.63
2023-04-02T20:19:48.443Z,9.30
2023-04-02T20:22:50.584Z,18.47
2023-04-02T20:25:56.148Z,12.20
2023-04-02T20:28:57.988Z,12.37
2023-04-02T20:32:00.218Z,11.60
2023-04-02T20:35:03.296Z,9.27
2023-04-02T20:38:06.809Z,11.53
2023-04-02T20:41:09.482Z,12.07
2023-04-02T20:44:12.425Z,14.67
2023-04-02T20:47:14.265Z,9.73
2023-04-02T20:50:16.612Z,11.67
2023-04-02T20:53:18.670Z,8.97
2023-04-02T20:56:22.365Z,9.17
2023-04-02T20:59:24.152Z,14.83
2023-04-02T21:02:26.197Z,13.93
2023-04-02T21:05:27.946Z,9.63
2023-04-02T21:08:29.876Z,9.83
2023-04-02T21:11:32.006Z,9.73
2023-04-02T21:14:38.043Z,12.00
2023-04-02T21:17:39.780Z,38.20
2023-04-02T21:20:41.633Z,38.10
2023-04-02T21:23:44.395Z,36.73
2023-04-02T21:26:46.573Z,36.97
2023-04-02T21:29:48.378Z,25.37
2023-04-02T21:32:50.292Z,21.17
2023-04-02T21:35:52.117Z,19.03
2023-04-02T21:38:56.700Z,16.43
2023-04-02T21:41:58.507Z,15.87
2023-04-02T21:45:00.259Z,15.10
2023-04-02T21:48:02.099Z,13.77
2023-04-02T21:51:09.405Z,11.90
2023-04-02T21:54:11.415Z,8.97
2023-04-02T21:57:13.255Z,10.90
2023-04-02T22:00:15.618Z,10.50
2023-04-02T22:03:25.127Z,12.00
2023-04-02T22:06:32.666Z,9.17
2023-04-02T22:09:34.458Z,9.53
2023-04-02T22:12:36.994Z,11.53
2023-04-02T22:15:38.663Z,8.70
2023-04-02T22:18:41.530Z,7.97
2023-04-02T22:21:43.970Z,9.53
2023-04-02T22:24:46.370Z,7.80
2023-04-02T22:27:51.789Z,7.67
2023-04-02T22:30:54.237Z,8.30
2023-04-02T22:33:57.283Z,9.67
2023-04-02T22:36:59.065Z,11.63
2023-04-02T22:40:01.296Z,10.73
2023-04-02T22:43:03.578Z,13.50
2023-04-02T22:46:07.107Z,9.23
2023-04-02T22:49:09.134Z,12.37
2023-04-02T22:52:10.917Z,13.17
2023-04-02T22:55:17.999Z,11.63
2023-04-02T22:58:20.757Z,11.67
2023-04-02T23:01:29.032Z,9.97
2023-04-02T23:04:30.822Z,11.37
2023-04-02T23:07:32.576Z,9.90
2023-04-02T23:10:34.526Z,8.43
2023-04-02T23:13:36.877Z,15.87
2023-04-02T23:16:38.694Z,9.17
2023-04-02T23:19:40.446Z,7.07
2023-04-02T23:22:42.194Z,9.03
2023-04-02T23:25:43.967Z,10.10
2023-04-02T23:28:46.124Z,12.00
2023-04-02T23:31:47.919Z,8.57
2023-04-02T23:34:49.734Z,10.20
2023-04-02T23:37:51.521Z,7.30
2023-04-02T23:40:53.986Z,7.20
2023-04-02T23:43:57.279Z,9.30
2023-04-02T23:46:59.667Z,9.53
2023-04-02T23:50:01.477Z,10.40
2023-04-02T23:53:03.285Z,8.07
2023-04-02T23:56:05.724Z,11.13
2023-04-02T23:59:08.221Z,10.27
